CheckWX is a tool to help pilots better visualize weather data.  It is not intended as a substitute for an official pre-flight weather briefing.

13:26:23 UTC

KAMA TAF
Rick Husband Amarillo International Airport
Amarillo, Texas, USA
KAMA 201139Z 2012/2112 20013KT P6SM SCT150 FM202300 17013KT P6SM SCT150

Aug-20@
12:00 UTC

Aug-20 @ 12:00 UTC

Aug-20@
23:00 UTC

Aug-20 @ 23:00 UTC

KAMA 201139Z 2012/2112 20013KT P6SM SCT150
Wind
  • 200° at 13 KTS
Cloud Levels
  • Scattered at 15,000' AGL

Aug-20@
23:00 UTC

Aug-20 @ 23:00 UTC

Aug-21@
12:00 UTC

Aug-21 @ 12:00 UTC

FM202300 17013KT P6SM SCT150

From

From Standard forecast or significant change

Wind
  • 170° at 13 KTS
Cloud Levels
  • Scattered at 15,000' AGL